Time;durP1;ratioP1;P1;durP2;ratioP2;P2;SDS_P1;SDS_P2;PMS_P1;PMS_P2;Temp;Humidity;BMP_temperature;BMP_pressure;BME280_temperature;BME280_humidity;BME280_pressure;Samples;Min_cycle;Max_cycle;Signal;HPM_P1;HPM_P2
2023/04/09 00:00:43;;;;;;;17.33;9.20;;;5.50;99.90;;;;;;5003380;28;20358;-77
2023/04/09 00:03:09;;;;;;;17.42;9.27;;;5.50;99.90;;;;;;5004830;28;20040;-78
2023/04/09 00:05:39;;;;;;;15.80;9.43;;;5.50;99.90;;;;;;5019990;28;20038;-78
2023/04/09 00:08:05;;;;;;;14.63;8.70;;;5.40;99.90;;;;;;5006243;28;20081;-77
2023/04/09 00:10:30;;;;;;;16.13;9.07;;;5.50;99.90;;;;;;5005207;28;20123;-78
2023/04/09 00:12:56;;;;;;;15.05;9.05;;;5.40;99.90;;;;;;5007056;28;20034;-77
2023/04/09 00:15:21;;;;;;;18.08;9.30;;;5.40;99.90;;;;;;5006254;28;20517;-77
2023/04/09 00:17:47;;;;;;;17.73;9.55;;;5.50;99.90;;;;;;5030998;28;20021;-77
2023/04/09 00:20:13;;;;;;;16.08;9.20;;;5.50;99.90;;;;;;5004751;28;20565;-77
2023/04/09 00:22:38;;;;;;;15.32;8.88;;;5.50;99.90;;;;;;5003611;28;20053;-77
2023/04/09 00:25:04;;;;;;;17.98;9.45;;;5.50;99.90;;;;;;5003892;28;20511;-78
2023/04/09 00:27:30;;;;;;;16.00;8.82;;;5.50;99.90;;;;;;5004131;28;20038;-77
2023/04/09 00:29:55;;;;;;;15.85;9.38;;;5.50;99.90;;;;;;5001264;28;20520;-79
2023/04/09 00:32:21;;;;;;;17.85;9.25;;;5.60;99.90;;;;;;5036957;28;20030;-77
2023/04/09 00:34:47;;;;;;;15.38;9.18;;;5.60;99.90;;;;;;5004992;28;20211;-78
2023/04/09 00:37:12;;;;;;;15.73;9.63;;;5.70;99.90;;;;;;5000007;28;20038;-78
2023/04/09 00:39:38;;;;;;;17.95;9.13;;;5.70;99.90;;;;;;5018402;28;20441;-77
2023/04/09 00:42:03;;;;;;;16.65;9.63;;;5.70;99.90;;;;;;5013953;28;20046;-79
2023/04/09 00:44:29;;;;;;;15.52;8.85;;;5.80;99.90;;;;;;5003257;28;20084;-78
2023/04/09 00:46:56;;;;;;;13.77;8.50;;;5.80;99.90;;;;;;5004076;28;20500;-77
2023/04/09 00:49:25;;;;;;;16.15;9.63;;;5.80;99.90;;;;;;5004922;28;20170;-77
2023/04/09 00:51:51;;;;;;;18.33;9.80;;;5.80;99.90;;;;;;5005293;28;20087;-77
2023/04/09 00:54:17;;;;;;;14.48;9.25;;;5.80;99.90;;;;;;5001954;28;20385;-77
2023/04/09 00:56:43;;;;;;;17.58;9.20;;;5.80;99.90;;;;;;5003866;28;20033;-78
2023/04/09 00:59:08;;;;;;;18.23;10.63;;;5.80;99.90;;;;;;5003817;28;20442;-78
2023/04/09 01:01:34;;;;;;;20.13;10.35;;;5.80;99.90;;;;;;5005856;28;20038;-78
2023/04/09 01:04:01;;;;;;;18.50;10.32;;;5.80;99.90;;;;;;5006276;28;20038;-78
2023/04/09 01:06:44;;;;;;;20.85;10.40;;;5.80;99.90;;;;;;5035566;28;20065;-78
2023/04/09 01:09:15;;;;;;;21.20;11.13;;;5.70;99.90;;;;;;5002881;28;20089;-77
2023/04/09 01:12:08;;;;;;;22.15;10.48;;;5.70;99.90;;;;;;5003169;28;20038;-78
2023/04/09 01:14:55;;;;;;;22.25;10.52;;;5.70;99.90;;;;;;5004982;28;20221;-77
2023/04/09 01:17:33;;;;;;;20.63;11.40;;;5.70;99.90;;;;;;4993481;28;20034;-77
2023/04/09 01:20:04;;;;;;;20.02;10.68;;;5.70;99.90;;;;;;4986109;28;20034;-78
2023/04/09 01:22:51;;;;;;;26.35;10.98;;;5.70;99.90;;;;;;5002684;28;20034;-78
2023/04/09 01:25:23;;;;;;;24.58;11.30;;;5.70;99.90;;;;;;4983660;28;20117;-77
2023/04/09 01:28:06;;;;;;;;;;;5.60;99.90;;;;;;4986488;28;20482;-77
2023/04/09 01:30:32;;;;;;;22.17;10.98;;;5.60;99.90;;;;;;5020496;28;20012;-78
2023/04/09 01:32:58;;;;;;;16.73;9.65;;;5.60;99.90;;;;;;5005024;28;20086;-78
2023/04/09 01:35:26;;;;;;;20.95;10.52;;;5.60;99.90;;;;;;5025398;28;20490;-78
2023/04/09 01:37:53;;;;;;;18.92;10.70;;;5.50;99.90;;;;;;5002724;28;20051;-78
2023/04/09 01:40:18;;;;;;;19.20;10.60;;;5.50;99.90;;;;;;5035518;28;20354;-78
2023/04/09 01:42:45;;;;;;;20.77;10.95;;;5.50;99.90;;;;;;5034644;28;20216;-78
2023/04/09 01:45:12;;;;;;;21.20;11.13;;;5.50;99.90;;;;;;5002819;28;20037;-78
2023/04/09 01:47:38;;;;;;;21.77;11.75;;;5.50;99.90;;;;;;5000062;28;20025;-78
2023/04/09 01:50:04;;;;;;;22.92;11.90;;;5.50;99.90;;;;;;4986652;28;20121;-78
2023/04/09 01:52:30;;;;;;;24.48;13.70;;;5.50;99.90;;;;;;4999008;28;20128;-77
2023/04/09 01:54:56;;;;;;;26.27;14.27;;;5.50;99.90;;;;;;5004589;28;20116;-78
2023/04/09 01:57:22;;;;;;;25.23;13.75;;;5.50;99.90;;;;;;5021972;28;20366;-78
2023/04/09 01:59:47;;;;;;;31.92;15.65;;;5.50;99.90;;;;;;5016435;28;20097;-78
2023/04/09 02:02:19;;;;;;;29.65;15.05;;;5.50;99.90;;;;;;5001710;28;20519;-78
2023/04/09 02:04:50;;;;;;;28.88;14.07;;;5.40;99.90;;;;;;5022209;28;20041;-78
2023/04/09 02:07:37;;;;;;;23.45;12.77;;;5.40;99.90;;;;;;5014351;28;20045;-78
2023/04/09 02:10:05;;;;;;;24.23;11.60;;;5.40;99.90;;;;;;4990743;28;20045;-78
2023/04/09 02:12:35;;;;;;;21.90;11.65;;;5.30;99.90;;;;;;4994744;28;20437;-78
2023/04/09 02:15:01;;;;;;;22.83;11.55;;;5.30;99.90;;;;;;4998987;28;20119;-78
2023/04/09 02:17:27;;;;;;;23.38;12.27;;;5.20;99.90;;;;;;5007470;28;20033;-79
2023/04/09 02:19:53;;;;;;;21.05;12.05;;;5.20;99.90;;;;;;5001402;28;20575;-78
2023/04/09 02:22:18;;;;;;;23.80;13.27;;;5.20;99.90;;;;;;4995162;28;20061;-78
2023/04/09 02:24:45;;;;;;;22.92;12.73;;;5.10;99.90;;;;;;4993531;28;20481;-78
2023/04/09 02:27:11;;;;;;;24.88;12.20;;;5.10;99.90;;;;;;4995831;28;20433;-77
2023/04/09 02:29:39;;;;;;;21.20;11.88;;;5.10;99.90;;;;;;4998758;28;20029;-78
2023/04/09 02:32:05;;;;;;;28.90;13.55;;;5.10;99.90;;;;;;5005846;28;20030;-78
2023/04/09 02:34:30;;;;;;;26.83;14.68;;;5.10;99.90;;;;;;4999509;28;20033;-77
2023/04/09 02:36:56;;;;;;;25.77;13.75;;;5.00;99.90;;;;;;4996470;28;20527;-77
2023/04/09 02:39:21;;;;;;;28.77;14.35;;;5.00;99.90;;;;;;4990837;28;20037;-78
2023/04/09 02:41:47;;;;;;;29.25;15.05;;;5.00;99.90;;;;;;5002844;28;20366;-78
2023/04/09 02:44:13;;;;;;;34.88;16.67;;;5.00;99.90;;;;;;4996449;28;20037;-78
2023/04/09 02:46:40;;;;;;;32.15;16.83;;;5.00;99.90;;;;;;5011071;28;20091;-78
2023/04/09 02:49:05;;;;;;;35.38;18.45;;;5.10;99.90;;;;;;5011647;28;20074;-77
2023/04/09 02:51:34;;;;;;;29.30;14.68;;;5.00;99.90;;;;;;4999069;28;20036;-77
2023/04/09 02:53:59;;;;;;;34.05;18.08;;;5.10;99.90;;;;;;5023226;28;20116;-77
2023/04/09 02:56:25;;;;;;;37.40;18.17;;;5.10;99.90;;;;;;5016446;28;20741;-78
2023/04/09 02:58:52;;;;;;;39.83;19.88;;;5.10;99.90;;;;;;4999818;28;20026;-78
2023/04/09 03:01:19;;;;;;;40.45;20.92;;;5.20;99.90;;;;;;4997882;28;20142;-78
2023/04/09 03:03:44;;;;;;;45.72;20.58;;;5.20;99.90;;;;;;4994140;28;20038;-78
2023/04/09 03:06:10;;;;;;;41.20;20.38;;;5.20;99.90;;;;;;5003805;28;20154;-78
2023/04/09 03:08:36;;;;;;;50.45;21.00;;;5.30;99.90;;;;;;5015790;28;20144;-78
2023/04/09 03:11:01;;;;;;;45.70;22.30;;;5.30;99.90;;;;;;5004888;28;20029;-77
2023/04/09 03:13:27;;;;;;;40.33;19.60;;;5.30;99.90;;;;;;4996936;28;20034;-79
2023/04/09 03:15:53;;;;;;;43.15;20.33;;;5.40;99.90;;;;;;4982344;28;20034;-78
2023/04/09 03:18:19;;;;;;;47.63;21.77;;;5.40;99.90;;;;;;4990962;28;20040;-78
2023/04/09 03:20:45;;;;;;;45.97;21.98;;;5.40;99.90;;;;;;5007797;28;20026;-78
2023/04/09 03:23:10;;;;;;;49.40;22.08;;;5.50;99.90;;;;;;4996584;28;20096;-77
2023/04/09 03:25:36;;;;;;;47.17;22.73;;;5.40;99.90;;;;;;4983054;28;20022;-78
2023/04/09 03:28:02;;;;;;;50.45;22.88;;;5.50;99.90;;;;;;4982796;28;20056;-78
2023/04/09 03:30:28;;;;;;;47.17;22.88;;;5.50;99.90;;;;;;4987772;28;20025;-78
2023/04/09 03:32:54;;;;;;;49.17;22.17;;;5.60;99.90;;;;;;5001290;28;20038;-78
2023/04/09 03:35:20;;;;;;;47.50;23.10;;;5.60;99.90;;;;;;5000400;28;20393;-78
2023/04/09 03:37:46;;;;;;;50.25;22.92;;;5.60;99.90;;;;;;4993729;28;20189;-78
2023/04/09 03:40:12;;;;;;;47.65;21.90;;;5.60;99.90;;;;;;4980969;28;20460;-78
2023/04/09 03:42:37;;;;;;;48.67;22.77;;;5.60;99.90;;;;;;4998969;28;20408;-78
2023/04/09 03:45:04;;;;;;;47.60;22.08;;;5.60;99.90;;;;;;5000832;28;20034;-78
2023/04/09 03:47:30;;;;;;;43.67;21.50;;;5.60;99.90;;;;;;4982911;28;20050;-78
2023/04/09 03:49:55;;;;;;;50.67;23.00;;;5.60;99.90;;;;;;4993596;28;20030;-78
2023/04/09 03:52:21;;;;;;;49.65;22.63;;;5.60;99.90;;;;;;5016670;28;20527;-78
2023/04/09 03:54:47;;;;;;;49.90;23.00;;;5.60;99.90;;;;;;5001471;28;20461;-78
2023/04/09 03:57:12;;;;;;;47.03;22.20;;;5.60;99.90;;;;;;5001764;28;20030;-77
2023/04/09 03:59:38;;;;;;;49.30;22.70;;;5.70;99.90;;;;;;5002180;28;20037;-77
2023/04/09 04:02:04;;;;;;;49.67;24.27;;;5.60;99.90;;;;;;4993862;28;20041;-78
2023/04/09 04:04:29;;;;;;;46.67;22.33;;;5.70;99.90;;;;;;4982518;28;20038;-77
2023/04/09 04:06:55;;;;;;;50.05;22.65;;;5.70;99.90;;;;;;5014386;28;20124;-78
2023/04/09 04:09:21;;;;;;;49.50;23.70;;;5.80;99.90;;;;;;4981502;28;20387;-77
2023/04/09 04:11:47;;;;;;;54.40;25.25;;;5.80;99.90;;;;;;5003221;28;20306;-77
2023/04/09 04:14:12;;;;;;;53.90;23.77;;;5.90;99.90;;;;;;5002264;28;20026;-78
2023/04/09 04:16:39;;;;;;;54.17;24.92;;;5.90;99.90;;;;;;4980464;28;20045;-77
2023/04/09 04:19:05;;;;;;;55.53;24.73;;;5.90;99.90;;;;;;4982277;28;20370;-78
2023/04/09 04:21:31;;;;;;;45.60;22.40;;;6.00;99.90;;;;;;5026633;28;20033;-78
2023/04/09 04:23:56;;;;;;;49.70;22.77;;;6.00;99.90;;;;;;5001842;28;20033;-78
2023/04/09 04:26:22;;;;;;;44.63;21.42;;;6.00;99.90;;;;;;4994228;28;20043;-78
2023/04/09 04:28:48;;;;;;;44.80;21.10;;;6.00;99.90;;;;;;4993906;28;20030;-78
2023/04/09 04:31:13;;;;;;;46.65;21.20;;;6.00;99.90;;;;;;5033134;28;20117;-78
2023/04/09 04:33:41;;;;;;;46.03;22.20;;;6.00;99.90;;;;;;5000685;28;20033;-78
2023/04/09 04:36:09;;;;;;;48.97;22.85;;;6.10;99.90;;;;;;5005091;28;20033;-78
2023/04/09 04:38:35;;;;;;;51.65;23.55;;;6.10;99.90;;;;;;4996123;28;20560;-78
2023/04/09 04:41:01;;;;;;;54.40;24.15;;;6.20;99.90;;;;;;5000745;28;20033;-78
2023/04/09 04:43:27;;;;;;;57.28;25.33;;;6.30;99.90;;;;;;4999966;28;20060;-78
2023/04/09 04:45:53;;;;;;;57.08;24.52;;;6.30;99.90;;;;;;4999233;28;20035;-78
2023/04/09 04:48:19;;;;;;;50.80;22.95;;;6.30;99.90;;;;;;5003083;28;20025;-77
2023/04/09 04:50:44;;;;;;;51.22;22.88;;;6.40;99.90;;;;;;5007933;28;20398;-78
2023/04/09 04:53:10;;;;;;;50.78;23.25;;;6.40;99.90;;;;;;5003085;28;20033;-78
2023/04/09 04:55:38;;;;;;;52.25;22.88;;;6.50;99.90;;;;;;5005471;28;20101;-78
2023/04/09 04:58:04;;;;;;;52.78;22.85;;;6.50;99.90;;;;;;5004025;28;20040;-78
2023/04/09 05:00:30;;;;;;;49.28;22.30;;;6.50;99.90;;;;;;5004854;28;20404;-78
2023/04/09 05:02:56;;;;;;;54.88;22.88;;;6.60;99.90;;;;;;5004228;28;20089;-78
2023/04/09 05:05:21;;;;;;;46.53;22.63;;;6.70;99.90;;;;;;5024672;28;20062;-77
2023/04/09 05:07:47;;;;;;;57.83;23.13;;;6.70;99.90;;;;;;5017624;28;20051;-78
2023/04/09 05:10:12;;;;;;;46.40;22.35;;;6.60;99.90;;;;;;5004293;28;20084;-78
2023/04/09 05:12:38;;;;;;;55.03;23.08;;;6.70;99.90;;;;;;5004735;28;20559;-78
2023/04/09 05:15:04;;;;;;;57.30;24.80;;;6.80;99.90;;;;;;5002404;28;20465;-78
2023/04/09 05:17:30;;;;;;;58.47;24.85;;;6.90;99.90;;;;;;5007034;28;20030;-79
2023/04/09 05:19:56;;;;;;;53.63;24.27;;;6.90;99.90;;;;;;5024877;28;20050;-78
2023/04/09 05:22:22;;;;;;;56.03;24.50;;;6.90;99.90;;;;;;5008341;28;20510;-78
2023/04/09 05:24:48;;;;;;;60.30;24.83;;;6.90;99.90;;;;;;5003052;28;20040;-77
2023/04/09 05:27:13;;;;;;;61.05;25.95;;;7.00;99.90;;;;;;5004861;28;20029;-78
2023/04/09 05:29:39;;;;;;;53.17;23.48;;;7.00;99.90;;;;;;5004528;28;20481;-78
2023/04/09 05:32:05;;;;;;;57.90;24.85;;;7.10;99.90;;;;;;5005245;28;20577;-77
2023/04/09 05:34:31;;;;;;;58.47;24.50;;;7.10;99.90;;;;;;5024734;28;20041;-78
2023/04/09 05:36:57;;;;;;;63.15;26.02;;;7.10;99.90;;;;;;5003026;28;20034;-78
2023/04/09 05:39:22;;;;;;;59.00;24.33;;;7.20;99.90;;;;;;5000811;28;20558;-78
2023/04/09 05:41:48;;;;;;;55.42;23.67;;;7.20;99.90;;;;;;5004374;28;20088;-78
2023/04/09 05:44:13;;;;;;;58.88;25.02;;;7.20;99.90;;;;;;5003551;28;20037;-78
2023/04/09 05:46:39;;;;;;;63.85;25.23;;;7.30;99.90;;;;;;5002823;28;20117;-78
2023/04/09 05:49:05;;;;;;;55.47;23.40;;;7.30;99.90;;;;;;5017325;28;20079;-78
2023/04/09 05:51:30;;;;;;;55.50;22.48;;;7.30;99.90;;;;;;5002340;28;20389;-78
2023/04/09 05:53:57;;;;;;;55.17;22.65;;;7.40;99.90;;;;;;5007510;28;20087;-78
2023/04/09 05:56:22;;;;;;;53.30;21.42;;;7.40;99.90;;;;;;5025076;28;20058;-78
2023/04/09 05:58:48;;;;;;;62.67;22.92;;;7.50;99.90;;;;;;5018612;28;20061;-78
2023/04/09 06:01:14;;;;;;;58.17;22.45;;;7.60;99.90;;;;;;5001795;28;20030;-78
2023/04/09 06:03:40;;;;;;;53.65;22.65;;;7.60;99.90;;;;;;4996396;28;20037;-78
2023/04/09 06:06:06;;;;;;;59.72;23.25;;;7.70;99.90;;;;;;4999984;28;20173;-79
2023/04/09 06:08:31;;;;;;;87.50;34.88;;;7.80;99.90;;;;;;4990848;28;20219;-78
2023/04/09 06:10:57;;;;;;;65.22;25.65;;;7.80;99.90;;;;;;5009561;28;20041;-78
2023/04/09 06:13:23;;;;;;;61.92;23.88;;;7.80;99.90;;;;;;5001091;28;20486;-79
2023/04/09 06:15:49;;;;;;;62.63;23.83;;;7.80;99.90;;;;;;4999284;28;20037;-78
2023/04/09 06:18:14;;;;;;;63.65;24.25;;;7.70;99.90;;;;;;5002858;28;20057;-79
2023/04/09 06:20:40;;;;;;;62.20;24.10;;;7.80;99.90;;;;;;5000472;28;20037;-78
2023/04/09 06:23:06;;;;;;;64.53;24.25;;;7.90;99.90;;;;;;5001503;28;20520;-78
2023/04/09 06:25:32;;;;;;;66.47;24.52;;;8.00;99.90;;;;;;5002869;28;20367;-78
2023/04/09 06:27:57;;;;;;;64.20;25.08;;;8.10;99.90;;;;;;4994860;28;20041;-78
2023/04/09 06:30:23;;;;;;;60.60;25.27;;;8.10;99.90;;;;;;5004971;28;20030;-78
2023/04/09 06:32:49;;;;;;;64.45;24.38;;;8.10;99.90;;;;;;5011159;28;20041;-79
2023/04/09 06:35:15;;;;;;;58.85;23.98;;;8.20;99.90;;;;;;5019683;28;20030;-79
2023/04/09 06:37:41;;;;;;;59.42;25.02;;;8.30;99.90;;;;;;5017307;28;20056;-78
2023/04/09 06:40:07;;;;;;;55.63;23.65;;;8.30;99.90;;;;;;4990968;28;20073;-78
2023/04/09 06:42:32;;;;;;;60.33;23.60;;;8.20;99.90;;;;;;4991640;28;20042;-78
2023/04/09 06:44:58;;;;;;;61.20;23.67;;;8.30;99.90;;;;;;4990207;28;20568;-78
2023/04/09 06:47:24;;;;;;;59.80;24.63;;;8.30;99.90;;;;;;4994187;28;20049;-78
2023/04/09 06:49:49;;;;;;;57.97;24.20;;;8.40;99.90;;;;;;5002357;28;20037;-78
2023/04/09 06:52:15;;;;;;;56.40;22.38;;;8.40;99.90;;;;;;4995135;28;20589;-78
2023/04/09 06:54:41;;;;;;;60.78;25.02;;;8.50;99.90;;;;;;4999835;28;20515;-79
2023/04/09 06:57:07;;;;;;;62.08;25.20;;;8.50;99.90;;;;;;4985651;28;20030;-79
2023/04/09 06:59:33;;;;;;;66.40;24.45;;;8.60;99.90;;;;;;5002016;28;20366;-79
2023/04/09 07:01:59;;;;;;;61.28;23.23;;;8.60;99.90;;;;;;5004710;28;20054;-79
2023/04/09 07:04:25;;;;;;;57.08;24.20;;;8.60;99.90;;;;;;4995084;28;20113;-79
2023/04/09 07:06:53;;;;;;;64.70;25.75;;;8.50;99.90;;;;;;4997186;28;20160;-79
2023/04/09 07:09:19;;;;;;;59.72;25.05;;;8.50;99.90;;;;;;4998349;28;20095;-79
2023/04/09 07:11:45;;;;;;;65.40;25.17;;;8.60;99.90;;;;;;5031583;28;20042;-79
2023/04/09 07:14:11;;;;;;;57.65;24.75;;;8.70;99.90;;;;;;4999848;28;20120;-79
2023/04/09 07:16:36;;;;;;;61.90;24.75;;;8.90;99.90;;;;;;5002197;28;20022;-79
2023/04/09 07:19:02;;;;;;;61.67;25.45;;;8.90;99.90;;;;;;5004203;28;20438;-79
2023/04/09 07:21:27;;;;;;;64.18;24.77;;;8.70;99.90;;;;;;5000108;28;20050;-78
2023/04/09 07:23:53;;;;;;;67.85;25.50;;;8.80;99.90;;;;;;5010253;28;20414;-79
2023/04/09 07:26:19;;;;;;;62.20;25.77;;;8.80;99.90;;;;;;5018755;28;20401;-79
2023/04/09 07:28:45;;;;;;;61.08;25.15;;;8.90;99.90;;;;;;5007567;28;20076;-79
2023/04/09 07:31:11;;;;;;;71.32;26.40;;;8.90;99.90;;;;;;4992624;28;20552;-79
2023/04/09 07:33:37;;;;;;;68.25;25.67;;;8.90;99.90;;;;;;4996854;28;20026;-78
2023/04/09 07:36:03;;;;;;;68.45;25.35;;;8.90;99.90;;;;;;5027165;28;20099;-79
2023/04/09 07:38:29;;;;;;;62.63;25.95;;;9.00;99.90;;;;;;5000093;28;20563;-79
2023/04/09 07:40:54;;;;;;;66.68;27.33;;;9.20;99.90;;;;;;4995243;28;20038;-79
2023/04/09 07:43:20;;;;;;;58.85;25.98;;;9.30;99.90;;;;;;5004990;28;20048;-79
2023/04/09 07:45:50;;;;;;;63.85;27.35;;;9.60;99.90;;;;;;4992790;28;20027;-80
2023/04/09 07:48:16;;;;;;;58.70;26.23;;;9.60;99.90;;;;;;4996847;28;20117;-79
2023/04/09 07:50:41;;;;;;;63.35;26.60;;;9.50;99.90;;;;;;4997193;28;20030;-79
2023/04/09 07:53:07;;;;;;;65.65;27.15;;;9.40;99.90;;;;;;4989313;28;20515;-79
2023/04/09 07:55:32;;;;;;;65.22;27.80;;;9.40;99.90;;;;;;5004388;28;20033;-79
2023/04/09 07:57:58;;;;;;;63.85;27.30;;;9.40;99.90;;;;;;4991369;28;20065;-80
2023/04/09 08:00:24;;;;;;;59.53;26.88;;;9.60;99.90;;;;;;4982751;28;20342;-79
2023/04/09 08:02:50;;;;;;;66.10;28.42;;;9.70;99.90;;;;;;4992887;28;20034;-79
2023/04/09 08:05:15;;;;;;;63.50;28.48;;;9.70;99.90;;;;;;4998102;28;20121;-78
2023/04/09 08:07:41;;;;;;;56.05;26.05;;;9.80;99.90;;;;;;5000062;28;20196;-79
2023/04/09 08:10:07;;;;;;;61.10;26.17;;;9.80;99.90;;;;;;5003151;28;20124;-78
2023/04/09 08:12:33;;;;;;;54.92;26.33;;;9.90;99.90;;;;;;5034118;28;20146;-79
2023/04/09 08:14:58;;;;;;;55.92;27.40;;;10.00;99.90;;;;;;5001469;28;20057;-79
2023/04/09 08:17:24;;;;;;;61.58;27.35;;;9.90;99.90;;;;;;5005181;28;20887;-79
2023/04/09 08:19:50;;;;;;;59.42;26.25;;;10.20;99.90;;;;;;4995696;28;20609;-78
2023/04/09 08:22:15;;;;;;;60.13;28.20;;;10.20;99.90;;;;;;5028516;28;20040;-79
2023/04/09 08:24:42;;;;;;;63.22;29.95;;;10.10;99.90;;;;;;4998096;28;20117;-79
2023/04/09 08:27:08;;;;;;;62.53;28.90;;;10.10;99.90;;;;;;4997292;28;20025;-79
2023/04/09 08:29:33;;;;;;;60.55;29.30;;;10.30;99.90;;;;;;5004995;28;20570;-78
2023/04/09 08:31:59;;;;;;;53.90;26.95;;;10.70;99.90;;;;;;5000113;28;20042;-78
2023/04/09 08:34:25;;;;;;;55.42;27.33;;;11.30;99.90;;;;;;4993056;28;20118;-79
2023/04/09 08:36:50;;;;;;;53.22;27.33;;;11.50;99.90;;;;;;4989088;28;20409;-78
2023/04/09 08:39:20;;;;;;;52.92;26.60;;;11.70;99.90;;;;;;4992754;28;20314;-79
2023/04/09 08:41:48;;;;;;;49.38;25.23;;;13.20;99.90;;;;;;4991844;28;20026;-79
2023/04/09 08:44:14;;;;;;;48.85;25.30;;;14.60;99.40;;;;;;5007438;28;20287;-79
2023/04/09 08:46:40;;;;;;;49.42;25.65;;;14.90;95.20;;;;;;4991645;28;20451;-77
2023/04/09 08:49:07;;;;;;;51.20;27.30;;;14.30;97.60;;;;;;4999731;28;20034;-78
2023/04/09 08:51:33;;;;;;;54.13;28.45;;;13.90;99.60;;;;;;5005696;28;20623;-78
2023/04/09 08:54:00;;;;;;;51.22;27.63;;;13.40;99.90;;;;;;5002123;28;20347;-78
2023/04/09 08:56:26;;;;;;;55.15;27.50;;;13.10;99.90;;;;;;5023877;28;20057;-78
2023/04/09 08:58:53;;;;;;;48.35;25.73;;;13.20;99.90;;;;;;5003948;28;20053;-78
2023/04/09 09:01:23;;;;;;;51.78;27.48;;;13.50;99.90;;;;;;4995795;28;20128;-77
2023/04/09 09:03:57;;;;;;;54.75;29.65;;;13.60;99.90;;;;;;5026719;28;20033;-77
2023/04/09 09:06:26;;;;;;;54.47;27.88;;;14.00;99.90;;;;;;4994653;28;20091;-79
2023/04/09 09:09:05;;;;;;;56.70;29.98;;;14.10;99.20;;;;;;5002651;28;20034;-78
2023/04/09 09:11:34;;;;;;;53.47;29.00;;;13.60;99.90;;;;;;5013275;28;20367;-78
2023/04/09 09:14:15;;;;;;;57.23;29.71;;;13.50;99.90;;;;;;5004010;28;10001333;-78
2023/04/09 09:16:43;;;;;;;51.95;29.95;;;14.70;99.90;;;;;;5003789;28;20854;-79
2023/04/09 09:19:24;;;;;;;50.53;27.75;;;16.00;93.00;;;;;;5002094;28;20034;-79
2023/04/09 09:21:56;;;;;;;44.40;26.10;;;16.70;87.30;;;;;;4999001;28;20121;-78
2023/04/09 09:24:22;;;;;;;44.30;26.10;;;20.00;59.10;;;;;;5002888;28;20462;-76
2023/04/09 09:26:48;;;;;;;41.22;25.98;;;21.90;50.40;;;;;;4999546;28;20101;-76
2023/04/09 09:29:13;;;;;;;44.15;27.25;;;23.50;47.30;;;;;;5015952;28;20038;-79
2023/04/09 09:31:52;;;;;;;42.20;26.50;;;23.20;43.10;;;;;;4997506;28;20036;-77
2023/04/09 09:34:20;;;;;;;44.13;28.13;;;24.10;40.90;;;;;;4994301;28;20105;-78
2023/04/09 09:36:46;;;;;;;37.83;25.73;;;24.40;41.70;;;;;;4992265;28;20026;-79
2023/04/09 09:39:13;;;;;;;35.08;24.00;;;25.10;41.10;;;;;;4998358;28;20418;-78
2023/04/09 09:41:40;;;;;;;37.60;26.30;;;27.20;39.30;;;;;;4999610;28;20603;-78
2023/04/09 09:44:09;;;;;;;36.25;28.20;;;28.80;34.50;;;;;;4996106;28;20030;-78
2023/04/09 09:46:41;;;;;;;37.33;26.63;;;29.40;32.50;;;;;;4987329;28;20109;-76
2023/04/09 09:49:07;;;;;;;34.20;24.85;;;29.30;32.90;;;;;;4987316;28;20149;-76
2023/04/09 09:51:38;;;;;;;32.00;22.65;;;30.50;32.30;;;;;;4987749;28;20048;-77
2023/04/09 09:54:07;;;;;;;38.30;26.85;;;31.40;29.50;;;;;;4997869;28;20496;-77
2023/04/09 09:56:38;;;;;;;32.95;25.85;;;31.20;28.70;;;;;;4984648;28;20068;-78
2023/04/09 09:59:22;;;;;;;31.88;25.08;;;31.60;29.50;;;;;;4995691;28;20026;-77
2023/04/09 10:01:56;;;;;;;29.73;22.55;;;32.40;29.60;;;;;;4998510;28;20239;-76
2023/04/09 10:04:24;;;;;;;31.77;24.13;;;32.50;27.20;;;;;;5004377;28;20415;-76
2023/04/09 10:06:50;;;;;;;33.28;25.17;;;31.10;28.20;;;;;;5003256;28;20154;-76
2023/04/09 10:09:18;;;;;;;40.03;25.58;;;27.80;30.90;;;;;;4995090;28;20029;-74
2023/04/09 10:11:46;;;;;;;35.65;25.80;;;26.10;35.30;;;;;;4997275;28;20029;-74
2023/04/09 10:14:13;;;;;;;34.40;24.80;;;25.40;38.00;;;;;;4999637;28;20018;-74
2023/04/09 10:16:40;;;;;;;33.15;24.25;;;26.90;34.70;;;;;;4995841;28;20026;-75
2023/04/09 10:19:11;;;;;;;33.13;23.88;;;28.30;31.70;;;;;;4993836;28;20025;-74
2023/04/09 10:21:46;;;;;;;34.22;23.38;;;29.80;32.70;;;;;;5000042;28;20038;-76
2023/04/09 10:24:12;;;;;;;30.90;21.50;;;30.00;30.20;;;;;;5000536;28;20026;-76
2023/04/09 10:26:43;;;;;;;28.17;20.90;;;30.80;29.10;;;;;;5000284;28;20022;-75
2023/04/09 10:29:13;;;;;;;30.83;22.52;;;31.20;30.00;;;;;;4997911;28;20111;-75
2023/04/09 10:31:51;;;;;;;33.22;24.23;;;31.10;28.30;;;;;;4991681;28;20050;-75
2023/04/09 10:34:20;;;;;;;30.95;24.25;;;30.60;28.10;;;;;;4989309;28;20103;-74
2023/04/09 10:36:51;;;;;;;33.72;24.25;;;28.90;30.20;;;;;;4992287;28;20389;-76
2023/04/09 10:39:17;;;;;;;31.77;24.42;;;28.00;31.50;;;;;;4991366;28;20028;-76
2023/04/09 10:41:45;;;;;;;33.35;23.63;;;28.50;32.40;;;;;;4993688;28;20041;-76
2023/04/09 10:44:21;;;;;;;29.73;23.45;;;29.50;30.70;;;;;;4995795;28;20038;-76
2023/04/09 10:46:47;;;;;;;28.48;21.83;;;31.20;30.00;;;;;;5003885;28;20053;-76
2023/04/09 10:49:40;;;;;;;27.20;21.55;;;31.80;29.00;;;;;;5002859;28;20136;-77
2023/04/09 10:52:09;;;;;;;34.00;23.52;;;30.70;28.90;;;;;;4982836;28;20034;-76
2023/04/09 10:54:42;;;;;;;33.45;22.35;;;30.10;31.60;;;;;;4998665;28;20038;-77
2023/04/09 10:57:15;;;;;;;27.67;20.95;;;29.10;30.00;;;;;;4995621;28;20030;-77
2023/04/09 10:59:47;;;;;;;26.52;18.73;;;28.80;30.60;;;;;;4996396;28;20030;-77
2023/04/09 11:02:37;;;;;;;26.48;17.95;;;29.50;31.10;;;;;;5011127;28;20522;-77
2023/04/09 11:05:24;;;;;;;25.77;19.23;;;30.80;29.20;;;;;;5010051;28;20037;-77
2023/04/09 11:08:02;;;;;;;23.48;17.35;;;30.50;27.80;;;;;;5001645;28;20054;-77
2023/04/09 11:10:28;;;;;;;28.10;19.60;;;30.30;31.80;;;;;;4983674;28;20109;-77
2023/04/09 11:12:53;;;;;;;24.77;18.83;;;30.80;28.00;;;;;;5000157;28;20572;-77
2023/04/09 11:15:20;;;;;;;28.05;20.40;;;31.30;29.70;;;;;;5006402;28;20483;-77
2023/04/09 11:17:47;;;;;;;31.13;21.63;;;31.20;28.70;;;;;;4996573;28;20100;-77
2023/04/09 11:20:15;;;;;;;27.40;20.10;;;29.90;28.30;;;;;;4999076;28;20073;-77
2023/04/09 11:22:41;;;;;;;29.13;19.45;;;28.40;32.40;;;;;;4990693;28;20129;-76
2023/04/09 11:25:07;;;;;;;31.38;20.80;;;28.10;33.20;;;;;;4989913;28;20034;-77
2023/04/09 11:27:43;;;;;;;32.65;22.70;;;26.10;33.00;;;;;;4990102;28;20034;-76
2023/04/09 11:30:09;;;;;;;30.10;20.52;;;24.00;36.20;;;;;;4986480;28;20421;-77
2023/04/09 11:32:35;;;;;;;28.60;19.63;;;23.70;39.20;;;;;;5002547;28;20065;-76
2023/04/09 11:35:00;;;;;;;30.27;20.10;;;24.00;39.60;;;;;;4998198;28;20029;-77
2023/04/09 11:37:26;;;;;;;31.65;20.15;;;24.30;42.80;;;;;;5021065;28;20107;-76
2023/04/09 11:39:53;;;;;;;30.38;20.15;;;24.40;37.90;;;;;;5012955;28;20044;-76
2023/04/09 11:42:20;;;;;;;31.98;21.00;;;24.10;42.80;;;;;;4992896;28;20080;-76
2023/04/09 11:44:48;;;;;;;30.17;20.08;;;23.10;40.10;;;;;;4985802;28;20124;-77
2023/04/09 11:47:16;;;;;;;29.70;20.13;;;22.20;42.90;;;;;;4985906;28;20034;-77
2023/04/09 11:49:41;;;;;;;33.20;21.30;;;21.50;43.50;;;;;;4989579;28;20029;-76
2023/04/09 11:52:07;;;;;;;32.50;20.88;;;20.60;45.70;;;;;;4988933;28;20070;-77
2023/04/09 11:54:33;;;;;;;35.92;20.67;;;20.00;46.50;;;;;;4987579;28;20033;-77
2023/04/09 11:57:00;;;;;;;35.65;21.27;;;20.20;58.00;;;;;;4989025;28;20465;-76
2023/04/09 11:59:26;;;;;;;32.55;20.40;;;20.30;50.20;;;;;;4984935;28;20370;-76
2023/04/09 12:01:52;;;;;;;31.40;20.13;;;20.40;51.90;;;;;;4984444;28;20068;-76
2023/04/09 12:04:21;;;;;;;37.90;22.70;;;19.40;51.00;;;;;;4984596;28;20423;-77
2023/04/09 12:06:47;;;;;;;38.17;21.83;;;19.40;57.90;;;;;;4983176;28;20045;-76
2023/04/09 12:09:13;;;;;;;37.10;21.48;;;19.10;60.10;;;;;;4983021;28;20557;-77
2023/04/09 12:11:42;;;;;;;33.50;20.13;;;19.60;66.50;;;;;;4982860;28;20029;-77
2023/04/09 12:14:12;;;;;;;35.50;21.48;;;20.00;58.20;;;;;;4993923;28;20048;-77
2023/04/09 12:16:42;;;;;;;34.15;20.33;;;19.80;57.60;;;;;;4987343;28;20054;-77
2023/04/09 12:19:09;;;;;;;30.25;19.17;;;19.50;52.00;;;;;;4990161;28;20378;-77
2023/04/09 12:21:57;;;;;;;37.08;22.00;;;19.40;53.00;;;;;;4991126;28;20033;-76
2023/04/09 12:24:23;;;;;;;32.72;20.45;;;19.80;62.10;;;;;;4993466;28;20093;-77
2023/04/09 12:26:50;;;;;;;36.05;21.92;;;20.50;52.60;;;;;;4994309;28;20492;-77
2023/04/09 12:29:17;;;;;;;41.53;23.80;;;20.80;57.20;;;;;;4999035;28;20034;-76
2023/04/09 12:31:44;;;;;;;35.03;21.77;;;20.60;50.60;;;;;;4996673;28;20117;-76
2023/04/09 12:34:10;;;;;;;38.15;23.20;;;20.60;50.80;;;;;;4996719;28;20484;-77
2023/04/09 12:36:37;;;;;;;36.47;21.75;;;21.40;56.10;;;;;;5002005;28;20038;-77